createdAt,value
2023-05-21T00:01:32.745Z,87.72
2023-05-21T00:04:00.708Z,91.59
2023-05-21T00:06:28.492Z,91.17
2023-05-21T00:08:56.144Z,93.55
2023-05-21T00:11:24.061Z,98.54
2023-05-21T00:13:51.564Z,98.00
2023-05-21T00:16:20.509Z,96.11
2023-05-21T00:18:49.688Z,95.51
2023-05-21T00:21:17.715Z,99.75
2023-05-21T00:23:45.668Z,100.00
2023-05-21T00:26:13.160Z,97.93
2023-05-21T00:28:40.663Z,100.00
2023-05-21T00:31:08.348Z,100.00
2023-05-21T00:33:37.320Z,100.00
2023-05-21T00:36:06.060Z,100.00
2023-05-21T00:38:33.768Z,100.00
2023-05-21T00:41:02.657Z,100.00
2023-05-21T00:43:30.165Z,100.00
2023-05-21T00:45:58.311Z,100.00
2023-05-21T00:48:26.107Z,100.00
2023-05-21T00:50:56.558Z,100.00
2023-05-21T00:53:24.260Z,100.00
2023-05-21T00:55:52.204Z,100.00
2023-05-21T00:58:19.821Z,100.00
2023-05-21T01:00:48.101Z,100.00
2023-05-21T01:03:16.420Z,100.00
2023-05-21T01:05:45.051Z,100.00
2023-05-21T01:08:14.951Z,100.00
2023-05-21T01:10:42.696Z,100.00
2023-05-21T01:13:10.720Z,98.29
2023-05-21T01:15:39.011Z,96.50
2023-05-21T01:18:07.701Z,95.55
2023-05-21T01:20:35.358Z,99.27
2023-05-21T01:23:04.569Z,100.00
2023-05-21T01:25:32.178Z,100.00
2023-05-21T01:27:59.696Z,100.00
2023-05-21T01:30:27.878Z,100.00
2023-05-21T01:33:03.223Z,100.00
2023-05-21T01:35:34.678Z,100.00
2023-05-21T01:38:10.592Z,100.00
2023-05-21T01:40:46.438Z,100.00
2023-05-21T01:43:15.751Z,100.00
2023-05-21T01:45:44.926Z,100.00
2023-05-21T01:48:13.770Z,100.00
2023-05-21T01:50:43.043Z,100.00
2023-05-21T01:53:11.938Z,100.00
2023-05-21T01:55:42.041Z,100.00
2023-05-21T01:58:09.974Z,100.00
2023-05-21T02:00:37.525Z,100.00
2023-05-21T02:03:05.333Z,100.00
2023-05-21T02:05:32.897Z,100.00
2023-05-21T02:08:01.424Z,100.00
2023-05-21T02:10:30.469Z,100.00
2023-05-21T02:12:59.290Z,100.00
2023-05-21T02:15:27.088Z,100.00
2023-05-21T02:17:55.576Z,100.00
2023-05-21T02:20:24.179Z,100.00
2023-05-21T02:22:51.691Z,100.00
2023-05-21T02:25:20.639Z,100.00
2023-05-21T02:27:52.766Z,100.00
2023-05-21T02:30:20.917Z,100.00
2023-05-21T02:32:49.837Z,100.00
2023-05-21T02:35:17.819Z,100.00
2023-05-21T02:37:45.446Z,100.00
2023-05-21T02:40:13.594Z,100.00
2023-05-21T02:42:41.826Z,100.00
2023-05-21T02:45:12.443Z,100.00
2023-05-21T02:47:40.835Z,100.00
2023-05-21T02:50:09.743Z,100.00
2023-05-21T02:52:37.253Z,100.00
2023-05-21T02:55:05.306Z,100.00
2023-05-21T02:57:32.790Z,100.00
2023-05-21T03:00:00.354Z,100.00
2023-05-21T03:02:30.225Z,100.00
2023-05-21T03:04:58.686Z,100.00
2023-05-21T03:07:26.219Z,100.00
2023-05-21T03:09:53.751Z,100.00
2023-05-21T03:12:21.299Z,100.00
2023-05-21T03:14:51.238Z,100.00
2023-05-21T03:17:18.945Z,100.00
2023-05-21T03:19:49.036Z,100.00
2023-05-21T03:22:16.620Z,100.00
2023-05-21T03:24:45.147Z,100.00
2023-05-21T03:27:12.665Z,100.00
2023-05-21T03:29:40.503Z,100.00
2023-05-21T03:32:08.851Z,100.00
2023-05-21T03:34:36.568Z,100.00
2023-05-21T03:37:05.704Z,100.00
2023-05-21T03:39:33.235Z,100.00
2023-05-21T03:42:00.747Z,100.00
2023-05-21T03:44:29.543Z,100.00
2023-05-21T03:46:57.111Z,100.00
2023-05-21T03:49:24.649Z,100.00
2023-05-21T03:51:52.182Z,100.00
2023-05-21T03:54:21.047Z,100.00
2023-05-21T03:56:48.673Z,100.00
2023-05-21T03:59:16.195Z,100.00
2023-05-21T04:01:45.280Z,100.00
2023-05-21T04:04:12.995Z,100.00
2023-05-21T04:06:42.284Z,100.00
2023-05-21T04:09:09.758Z,100.00
2023-05-21T04:11:38.591Z,100.00
2023-05-21T04:14:06.209Z,100.00
2023-05-21T04:16:35.521Z,100.00
2023-05-21T04:19:03.093Z,100.00
2023-05-21T04:21:31.878Z,100.00
2023-05-21T04:24:00.744Z,100.00
2023-05-21T04:26:29.478Z,100.00
2023-05-21T04:28:59.373Z,100.00
2023-05-21T04:31:26.966Z,100.00
2023-05-21T04:33:54.582Z,100.00
2023-05-21T04:36:22.133Z,100.00
2023-05-21T04:38:49.796Z,100.00
2023-05-21T04:41:18.770Z,100.00
2023-05-21T04:43:46.302Z,100.00
2023-05-21T04:46:15.206Z,100.00
2023-05-21T04:48:42.724Z,98.54
2023-05-21T04:51:10.238Z,91.94
2023-05-21T04:53:38.757Z,82.06
2023-05-21T04:56:07.325Z,76.66
2023-05-21T04:58:34.864Z,75.83
2023-05-21T05:01:03.276Z,75.62
2023-05-21T05:03:32.314Z,73.56
2023-05-21T05:05:59.861Z,73.11
2023-05-21T05:08:27.389Z,71.50
2023-05-21T05:10:54.904Z,70.89
2023-05-21T05:13:22.429Z,73.85
2023-05-21T05:15:51.019Z,75.16
2023-05-21T05:18:19.531Z,73.14
2023-05-21T05:20:48.360Z,73.63
2023-05-21T05:23:16.117Z,74.97
2023-05-21T05:25:43.662Z,75.01
2023-05-21T05:28:11.163Z,75.53
2023-05-21T05:30:38.731Z,75.79
2023-05-21T05:33:06.328Z,79.46
2023-05-21T05:35:33.914Z,77.56
2023-05-21T05:38:03.118Z,76.07
2023-05-21T05:40:30.699Z,76.25
2023-05-21T05:42:58.235Z,74.82
2023-05-21T05:45:26.694Z,73.16
2023-05-21T05:47:54.254Z,70.93
2023-05-21T05:50:22.182Z,67.79
2023-05-21T05:52:49.671Z,67.21
2023-05-21T05:55:18.556Z,66.88
2023-05-21T05:57:46.308Z,65.46
2023-05-21T06:00:14.814Z,65.99
2023-05-21T06:02:42.623Z,66.85
2023-05-21T06:05:11.159Z,66.07
2023-05-21T06:07:39.557Z,63.88
2023-05-21T06:10:07.720Z,65.28
2023-05-21T06:12:36.854Z,63.29
2023-05-21T06:15:04.976Z,62.39
2023-05-21T06:17:32.679Z,62.91
2023-05-21T06:20:00.239Z,61.14
2023-05-21T06:22:27.744Z,60.08
2023-05-21T06:24:55.242Z,58.84
2023-05-21T06:27:22.735Z,59.01
2023-05-21T06:29:51.722Z,59.62
2023-05-21T06:32:21.303Z,58.02
2023-05-21T06:34:48.858Z,55.77
2023-05-21T06:37:20.714Z,56.30
2023-05-21T06:39:48.493Z,56.30
2023-05-21T06:42:16.075Z,57.55
2023-05-21T06:44:43.633Z,55.92
2023-05-21T06:47:12.541Z,58.79
2023-05-21T06:49:40.056Z,59.31
2023-05-21T06:52:07.987Z,58.40
2023-05-21T06:54:35.543Z,58.95
2023-05-21T06:57:03.036Z,57.27
2023-05-21T06:59:30.587Z,57.08
2023-05-21T07:01:58.124Z,54.32
2023-05-21T07:04:26.961Z,51.59
2023-05-21T07:06:54.531Z,50.49
2023-05-21T07:09:22.019Z,48.60
2023-05-21T07:11:49.525Z,49.19
2023-05-21T07:14:17.044Z,48.75
2023-05-21T07:16:44.647Z,50.22
2023-05-21T07:19:12.181Z,51.61
2023-05-21T07:21:41.021Z,52.48
2023-05-21T07:24:08.549Z,52.94
2023-05-21T07:26:36.079Z,52.30
2023-05-21T07:29:03.599Z,53.48
2023-05-21T07:31:31.203Z,53.43
2023-05-21T07:33:58.717Z,54.75
2023-05-21T07:36:27.165Z,54.09
2023-05-21T07:38:56.258Z,54.30
2023-05-21T07:41:23.761Z,52.06
2023-05-21T07:43:51.421Z,53.00
2023-05-21T07:46:18.946Z,53.00
2023-05-21T07:48:46.530Z,51.66
2023-05-21T07:51:14.056Z,51.20
2023-05-21T07:53:41.623Z,52.84
2023-05-21T07:56:10.718Z,53.23
2023-05-21T07:58:38.248Z,52.36
2023-05-21T08:01:06.217Z,53.06
2023-05-21T08:03:33.918Z,51.74
2023-05-21T08:06:01.712Z,49.96
2023-05-21T08:08:29.234Z,49.42
2023-05-21T08:10:57.066Z,48.87
2023-05-21T08:13:25.946Z,49.17
2023-05-21T08:15:53.827Z,50.01
2023-05-21T08:18:23.716Z,49.95
2023-05-21T08:20:51.649Z,50.73
2023-05-21T08:23:19.162Z,50.77
2023-05-21T08:25:46.790Z,51.02
2023-05-21T08:28:14.359Z,49.24
2023-05-21T08:30:43.211Z,46.55
2023-05-21T08:33:10.785Z,47.25
2023-05-21T08:35:38.574Z,46.37
2023-05-21T08:38:06.304Z,45.89
2023-05-21T08:40:34.078Z,43.37
2023-05-21T08:43:02.162Z,44.66
2023-05-21T08:45:37.759Z,42.89
2023-05-21T08:48:09.897Z,42.10
2023-05-21T08:50:37.530Z,41.27
2023-05-21T08:53:15.818Z,41.77
2023-05-21T08:55:57.083Z,42.26
2023-05-21T08:58:24.832Z,42.64
2023-05-21T09:00:52.427Z,42.38
2023-05-21T09:03:22.306Z,42.63
2023-05-21T09:05:51.146Z,41.76
2023-05-21T09:08:20.467Z,41.34
2023-05-21T09:10:51.211Z,41.48
2023-05-21T09:13:19.439Z,41.10
2023-05-21T09:15:47.897Z,42.35
2023-05-21T09:18:15.616Z,41.92
2023-05-21T09:20:45.324Z,42.47
2023-05-21T09:23:16.927Z,42.88
2023-05-21T09:25:47.435Z,42.25
2023-05-21T09:28:16.409Z,43.44
2023-05-21T09:30:47.586Z,41.97
2023-05-21T09:33:25.927Z,41.34
2023-05-21T09:35:55.068Z,41.25
2023-05-21T09:38:23.618Z,40.96
2023-05-21T09:40:51.221Z,43.08
2023-05-21T09:43:19.226Z,39.85
2023-05-21T09:45:53.556Z,40.01
2023-05-21T09:48:35.466Z,41.77
2023-05-21T09:51:12.726Z,40.28
2023-05-21T09:53:52.232Z,40.23
2023-05-21T09:56:24.829Z,40.26
2023-05-21T09:58:54.578Z,41.67
2023-05-21T10:01:22.410Z,41.19
2023-05-21T10:03:54.899Z,40.24
2023-05-21T10:06:25.794Z,40.38
2023-05-21T10:08:55.890Z,39.80
2023-05-21T10:11:26.374Z,40.11
2023-05-21T10:13:58.699Z,40.92
2023-05-21T10:16:26.624Z,39.34
2023-05-21T10:18:57.561Z,41.25
2023-05-21T10:21:27.782Z,39.49
2023-05-21T10:23:57.346Z,39.03
2023-05-21T10:26:26.339Z,37.84
2023-05-21T10:28:55.997Z,37.97
2023-05-21T10:31:24.013Z,36.25
2023-05-21T10:33:54.133Z,35.43
2023-05-21T10:36:21.887Z,36.49
2023-05-21T10:38:50.775Z,35.08
2023-05-21T10:41:20.956Z,36.54
2023-05-21T10:44:05.502Z,37.29
2023-05-21T10:47:06.968Z,37.76
2023-05-21T10:50:00.083Z,35.64
2023-05-21T10:52:40.117Z,36.09
2023-05-21T10:55:24.314Z,36.35
2023-05-21T10:58:13.239Z,37.16
2023-05-21T11:00:40.959Z,36.89
2023-05-21T11:03:09.424Z,38.09
2023-05-21T11:05:42.029Z,38.97
2023-05-21T11:08:23.214Z,38.28
2023-05-21T11:10:57.837Z,37.78
2023-05-21T11:13:26.426Z,37.12
2023-05-21T11:16:07.965Z,37.67
2023-05-21T11:19:01.128Z,35.88
2023-05-21T11:21:34.678Z,35.32
2023-05-21T11:24:04.468Z,35.34
2023-05-21T11:27:04.636Z,36.62
2023-05-21T11:29:41.314Z,36.62
2023-05-21T11:32:10.162Z,37.08
2023-05-21T11:34:39.613Z,35.77
2023-05-21T11:37:30.519Z,38.42
2023-05-21T11:39:59.618Z,36.09
2023-05-21T11:42:36.199Z,36.02
2023-05-21T11:45:04.772Z,36.12
2023-05-21T11:47:33.108Z,36.34
2023-05-21T11:50:01.883Z,36.37
2023-05-21T11:52:30.397Z,36.06
2023-05-21T11:54:59.850Z,36.26
2023-05-21T11:57:31.022Z,34.49
2023-05-21T12:00:01.637Z,34.04
2023-05-21T12:02:33.243Z,36.10
2023-05-21T12:05:01.131Z,34.93
2023-05-21T12:07:31.185Z,35.30
2023-05-21T12:09:59.409Z,35.64
2023-05-21T12:12:33.084Z,34.41
2023-05-21T12:15:13.162Z,33.24
2023-05-21T12:17:41.082Z,33.65
2023-05-21T12:20:10.681Z,34.68
2023-05-21T12:22:43.916Z,35.52
2023-05-21T12:25:12.308Z,35.03
2023-05-21T12:27:42.010Z,35.28
2023-05-21T12:30:11.473Z,34.15
2023-05-21T12:32:42.760Z,34.82
2023-05-21T12:35:10.921Z,35.17
2023-05-21T12:37:38.507Z,36.83
2023-05-21T12:40:08.894Z,36.05
2023-05-21T12:42:40.004Z,34.68
2023-05-21T12:45:08.917Z,34.32
2023-05-21T12:47:38.443Z,33.46
2023-05-21T12:50:11.733Z,33.17
2023-05-21T12:52:41.123Z,33.30
2023-05-21T12:55:10.398Z,34.04
2023-05-21T12:57:39.393Z,33.71
2023-05-21T13:00:08.873Z,35.40
2023-05-21T13:02:40.371Z,34.26
2023-05-21T13:05:09.537Z,35.81
2023-05-21T13:07:38.504Z,35.39
2023-05-21T13:10:08.160Z,35.88
2023-05-21T13:12:35.754Z,34.95
2023-05-21T13:15:05.399Z,36.86
2023-05-21T13:17:33.282Z,35.19
2023-05-21T13:20:10.205Z,35.22
2023-05-21T13:22:42.216Z,35.98
2023-05-21T13:25:10.974Z,35.19
2023-05-21T13:27:38.830Z,35.82
2023-05-21T13:30:07.664Z,34.27
2023-05-21T13:32:35.558Z,36.45
2023-05-21T13:35:03.137Z,35.33
2023-05-21T13:37:32.202Z,33.08
2023-05-21T13:39:59.694Z,33.04
2023-05-21T13:42:27.183Z,32.40
2023-05-21T13:44:54.685Z,33.68
2023-05-21T13:47:22.213Z,34.10
2023-05-21T13:49:49.708Z,32.53
2023-05-21T13:52:17.257Z,32.53
2023-05-21T13:54:46.131Z,33.65
2023-05-21T13:57:13.818Z,33.61
2023-05-21T13:59:41.605Z,35.70
2023-05-21T14:02:10.305Z,35.83
2023-05-21T14:04:39.301Z,35.95
2023-05-21T14:07:07.699Z,35.81
2023-05-21T14:09:35.772Z,36.65
2023-05-21T14:12:06.424Z,35.78
2023-05-21T14:14:34.329Z,35.45
2023-05-21T14:17:01.913Z,34.47
2023-05-21T14:19:29.559Z,34.80
2023-05-21T14:21:57.667Z,35.84
2023-05-21T14:24:25.162Z,35.55
2023-05-21T14:26:52.675Z,34.34
2023-05-21T14:29:21.521Z,35.27
2023-05-21T14:31:49.083Z,34.52
2023-05-21T14:34:16.632Z,35.72
2023-05-21T14:36:44.132Z,34.40
2023-05-21T14:39:11.631Z,33.34
2023-05-21T14:41:39.724Z,34.01
2023-05-21T14:44:07.530Z,33.72
2023-05-21T14:46:36.776Z,32.48
2023-05-21T14:49:04.426Z,33.72
2023-05-21T14:51:32.368Z,33.22
2023-05-21T14:53:59.909Z,34.38
2023-05-21T14:56:28.088Z,32.70
2023-05-21T14:58:55.843Z,32.96
2023-05-21T15:01:23.479Z,32.46
2023-05-21T15:03:52.523Z,32.80
2023-05-21T15:06:20.072Z,33.88
2023-05-21T15:08:47.603Z,34.91
2023-05-21T15:11:15.113Z,33.80
2023-05-21T15:13:42.617Z,34.13
2023-05-21T15:16:10.141Z,34.78
2023-05-21T15:18:37.723Z,35.09
2023-05-21T15:21:07.118Z,34.24
2023-05-21T15:23:34.622Z,33.77
2023-05-21T15:26:02.117Z,34.57
2023-05-21T15:28:29.612Z,33.23
2023-05-21T15:30:57.247Z,34.18
2023-05-21T15:33:24.737Z,33.00
2023-05-21T15:35:52.282Z,32.21
2023-05-21T15:38:21.109Z,32.81
2023-05-21T15:40:48.636Z,33.34
2023-05-21T15:43:16.192Z,32.38
2023-05-21T15:45:43.708Z,32.70
2023-05-21T15:48:12.348Z,33.36
2023-05-21T15:50:40.032Z,32.61
2023-05-21T15:53:07.539Z,33.94
2023-05-21T15:55:36.494Z,32.73
2023-05-21T15:58:04.598Z,33.64
2023-05-21T16:00:32.105Z,33.58
2023-05-21T16:02:59.724Z,33.11
2023-05-21T16:05:27.430Z,33.82
2023-05-21T16:07:54.921Z,32.76
2023-05-21T16:10:22.889Z,34.05
2023-05-21T16:12:51.759Z,34.49
2023-05-21T16:15:19.265Z,34.55
2023-05-21T16:17:47.149Z,34.86
2023-05-21T16:20:14.956Z,35.52
2023-05-21T16:22:42.450Z,35.72
2023-05-21T16:25:10.425Z,34.80
2023-05-21T16:27:37.931Z,35.51
2023-05-21T16:30:08.340Z,35.69
2023-05-21T16:32:35.939Z,35.20
2023-05-21T16:35:03.659Z,36.54
2023-05-21T16:37:31.140Z,35.70
2023-05-21T16:39:58.669Z,35.72
2023-05-21T16:42:26.391Z,34.59
2023-05-21T16:44:53.910Z,35.05
2023-05-21T16:47:22.822Z,34.38
2023-05-21T16:49:50.330Z,33.81
2023-05-21T16:52:17.824Z,34.51
2023-05-21T16:54:48.635Z,34.44
2023-05-21T16:57:16.415Z,33.58
2023-05-21T16:59:44.410Z,33.57
2023-05-21T17:02:13.382Z,34.21
2023-05-21T17:04:42.301Z,34.51
2023-05-21T17:07:09.840Z,34.77
2023-05-21T17:09:37.370Z,34.41
2023-05-21T17:12:05.441Z,35.31
2023-05-21T17:14:34.849Z,34.18
2023-05-21T17:17:02.527Z,35.40
2023-05-21T17:19:30.179Z,34.17
2023-05-21T17:21:59.277Z,34.55
2023-05-21T17:24:26.777Z,34.68
2023-05-21T17:26:54.567Z,34.78
2023-05-21T17:29:22.074Z,34.84
2023-05-21T17:31:49.722Z,33.92
2023-05-21T17:34:17.954Z,34.54
2023-05-21T17:36:45.493Z,34.86
2023-05-21T17:39:14.361Z,34.96
2023-05-21T17:41:41.899Z,34.62
2023-05-21T17:44:11.320Z,34.58
2023-05-21T17:46:38.855Z,34.20
2023-05-21T17:49:07.399Z,33.95
2023-05-21T17:51:35.014Z,33.27
2023-05-21T17:54:02.546Z,34.33
2023-05-21T17:56:34.241Z,34.86
2023-05-21T17:59:01.734Z,35.31
2023-05-21T18:01:29.382Z,36.39
2023-05-21T18:03:57.038Z,36.91
2023-05-21T18:06:26.138Z,36.66
2023-05-21T18:08:53.638Z,37.96
2023-05-21T18:11:21.470Z,38.61
2023-05-21T18:13:50.449Z,40.11
2023-05-21T18:16:18.519Z,40.59
2023-05-21T18:18:46.134Z,41.11
2023-05-21T18:21:14.018Z,41.46
2023-05-21T18:23:41.540Z,41.21
2023-05-21T18:26:09.061Z,41.54
2023-05-21T18:28:36.612Z,41.85
2023-05-21T18:31:05.587Z,42.57
2023-05-21T18:33:33.071Z,42.78
2023-05-21T18:36:00.577Z,42.95
2023-05-21T18:38:28.233Z,43.34
2023-05-21T18:40:55.757Z,43.59
2023-05-21T18:43:23.281Z,43.61
2023-05-21T18:45:50.815Z,44.16
2023-05-21T18:48:19.622Z,44.71
2023-05-21T18:50:47.124Z,45.08
2023-05-21T18:53:14.621Z,46.79
2023-05-21T18:55:42.369Z,47.34
2023-05-21T18:58:10.077Z,47.32
2023-05-21T19:00:39.424Z,48.58
2023-05-21T19:03:07.137Z,49.84
2023-05-21T19:05:37.749Z,51.57
2023-05-21T19:08:05.899Z,51.62
2023-05-21T19:10:33.418Z,53.09
2023-05-21T19:13:00.995Z,53.84
2023-05-21T19:15:28.493Z,54.28
2023-05-21T19:17:56.016Z,55.12
2023-05-21T19:20:24.774Z,55.91
2023-05-21T19:22:53.815Z,56.48
2023-05-21T19:25:21.452Z,55.72
2023-05-21T19:27:49.008Z,55.67
2023-05-21T19:30:16.674Z,57.24
2023-05-21T19:32:44.211Z,58.03
2023-05-21T19:35:12.071Z,59.89
2023-05-21T19:37:39.782Z,58.60
2023-05-21T19:40:10.185Z,59.82
2023-05-21T19:42:37.777Z,60.39
2023-05-21T19:45:09.279Z,60.78
2023-05-21T19:47:36.936Z,63.17
2023-05-21T19:50:05.061Z,61.85
2023-05-21T19:52:32.588Z,62.33
2023-05-21T19:55:04.434Z,64.77
2023-05-21T19:57:33.361Z,66.43
2023-05-21T20:00:00.906Z,64.13
2023-05-21T20:02:29.134Z,64.64
2023-05-21T20:04:58.698Z,63.64
2023-05-21T20:07:26.203Z,64.28
2023-05-21T20:09:53.706Z,64.57
2023-05-21T20:12:21.192Z,65.35
2023-05-21T20:14:50.076Z,67.38
2023-05-21T20:17:18.811Z,67.85
2023-05-21T20:19:47.930Z,68.63
2023-05-21T20:22:15.963Z,69.23
2023-05-21T20:24:43.726Z,69.45
2023-05-21T20:27:11.252Z,67.54
2023-05-21T20:29:38.767Z,65.32
2023-05-21T20:32:08.183Z,63.15
2023-05-21T20:37:05.155Z,63.17
2023-05-21T20:39:32.652Z,61.47
2023-05-21T20:42:00.986Z,61.47
2023-05-21T20:44:29.237Z,62.53
2023-05-21T20:46:56.857Z,64.06
2023-05-21T20:49:25.866Z,64.02
2023-05-21T20:51:56.673Z,63.54
2023-05-21T20:54:24.316Z,63.65
2023-05-21T20:56:54.800Z,64.43
2023-05-21T20:59:22.277Z,65.96
2023-05-21T21:01:50.787Z,66.30
2023-05-21T21:04:18.973Z,66.88
2023-05-21T21:06:48.235Z,69.34
2023-05-21T21:09:15.708Z,70.38
2023-05-21T21:11:43.236Z,71.73
2023-05-21T21:14:13.828Z,73.32
2023-05-21T21:16:41.529Z,73.14
2023-05-21T21:19:09.151Z,75.15
2023-05-21T21:21:36.755Z,74.09
2023-05-21T21:24:06.724Z,78.66
2023-05-21T21:26:34.239Z,78.14
2023-05-21T21:29:01.745Z,75.42
2023-05-21T21:31:30.083Z,74.44
2023-05-21T21:33:57.822Z,73.02
2023-05-21T21:36:25.454Z,71.65
2023-05-21T21:38:52.943Z,71.38
2023-05-21T21:41:22.409Z,68.94
2023-05-21T21:43:51.566Z,68.61
2023-05-21T21:46:19.361Z,68.98
2023-05-21T21:48:46.888Z,67.90
2023-05-21T21:51:15.557Z,67.82
2023-05-21T21:53:43.062Z,68.42
2023-05-21T21:56:10.974Z,68.78
2023-05-21T21:58:39.824Z,71.16
2023-05-21T22:01:07.440Z,74.12
2023-05-21T22:03:35.201Z,78.95
2023-05-21T22:06:02.927Z,82.73
2023-05-21T22:08:30.397Z,80.80
2023-05-21T22:10:58.814Z,81.53
2023-05-21T22:13:28.501Z,79.26
2023-05-21T22:15:58.315Z,78.93
2023-05-21T22:18:39.682Z,77.99
2023-05-21T22:21:09.285Z,78.73
2023-05-21T22:23:37.264Z,80.40
2023-05-21T22:26:04.909Z,79.61
2023-05-21T22:28:32.422Z,77.79
2023-05-21T22:31:01.302Z,76.04
2023-05-21T22:33:29.127Z,75.12
2023-05-21T22:35:56.748Z,76.37
2023-05-21T22:38:24.336Z,76.44
2023-05-21T22:40:51.856Z,73.18
2023-05-21T22:43:19.409Z,73.40
2023-05-21T22:45:46.938Z,73.25
2023-05-21T22:48:18.119Z,73.33
2023-05-21T22:50:46.093Z,72.85
2023-05-21T22:53:13.838Z,72.37
2023-05-21T22:55:41.366Z,74.22
2023-05-21T22:58:08.901Z,75.02
2023-05-21T23:00:37.215Z,75.60
2023-05-21T23:03:05.247Z,76.45
2023-05-21T23:05:34.265Z,75.59
2023-05-21T23:08:01.839Z,75.64
2023-05-21T23:10:29.335Z,75.07
2023-05-21T23:12:56.855Z,75.13
2023-05-21T23:15:24.364Z,77.44
2023-05-21T23:17:51.907Z,80.68
2023-05-21T23:20:21.568Z,80.67
2023-05-21T23:22:50.434Z,82.47
2023-05-21T23:25:18.114Z,84.56
2023-05-21T23:27:45.850Z,82.38
2023-05-21T23:30:13.751Z,82.22
2023-05-21T23:32:41.320Z,83.21
2023-05-21T23:35:10.347Z,83.49
2023-05-21T23:37:37.862Z,84.10
2023-05-21T23:40:08.329Z,88.16
2023-05-21T23:42:36.023Z,85.33
2023-05-21T23:45:03.634Z,85.01
2023-05-21T23:47:31.135Z,85.75
2023-05-21T23:49:58.624Z,91.63
2023-05-21T23:52:26.319Z,100.00
2023-05-21T23:54:53.819Z,100.00
2023-05-21T23:57:22.646Z,100.00
2023-05-21T23:59:50.160Z,100.00
